createdAt,value
2022-10-06T00:02:42.473Z,3.30
2022-10-06T00:05:28.988Z,3.53
2022-10-06T00:08:15.139Z,3.65
2022-10-06T00:11:02.090Z,3.28
2022-10-06T00:13:49.752Z,3.42
2022-10-06T00:16:36.205Z,3.08
2022-10-06T00:19:22.394Z,3.20
2022-10-06T00:22:08.898Z,2.50
2022-10-06T00:24:55.121Z,3.55
2022-10-06T00:27:44.253Z,3.40
2022-10-06T00:30:32.178Z,3.25
2022-10-06T00:33:18.853Z,2.85
2022-10-06T00:36:05.914Z,3.03
2022-10-06T00:38:52.251Z,3.10
2022-10-06T00:41:40.137Z,3.40
2022-10-06T00:44:26.678Z,3.20
2022-10-06T00:47:14.165Z,3.13
2022-10-06T00:50:02.642Z,3.15
2022-10-06T00:52:49.182Z,3.17
2022-10-06T00:55:35.562Z,2.85
2022-10-06T00:58:22.546Z,3.22
2022-10-06T01:01:12.447Z,3.00
2022-10-06T01:04:04.032Z,3.38
2022-10-06T01:06:53.508Z,3.40
2022-10-06T01:09:40.423Z,2.97
2022-10-06T01:12:28.305Z,3.00
2022-10-06T01:15:15.001Z,3.13
2022-10-06T01:18:05.199Z,2.80
2022-10-06T01:20:58.664Z,3.03
2022-10-06T01:23:46.421Z,2.90
2022-10-06T01:26:34.730Z,2.97
2022-10-06T01:29:21.698Z,3.10
2022-10-06T01:32:08.774Z,3.25
2022-10-06T01:34:55.287Z,2.90
2022-10-06T01:37:41.750Z,3.10
2022-10-06T01:40:30.195Z,3.60
2022-10-06T01:43:16.503Z,2.95
2022-10-06T01:46:02.860Z,3.13
2022-10-06T01:48:49.163Z,2.92
2022-10-06T01:51:35.821Z,3.30
2022-10-06T01:54:22.017Z,2.80
2022-10-06T01:57:09.953Z,3.20
2022-10-06T01:59:56.121Z,2.83
2022-10-06T02:02:42.806Z,2.83
2022-10-06T02:05:29.316Z,2.80
2022-10-06T02:08:16.076Z,3.08
2022-10-06T02:11:06.466Z,2.92
2022-10-06T02:13:54.385Z,2.97
2022-10-06T02:16:40.610Z,2.80
2022-10-06T02:19:26.814Z,2.58
2022-10-06T02:22:13.385Z,2.75
2022-10-06T02:24:59.602Z,2.90
2022-10-06T02:27:45.919Z,2.90
2022-10-06T02:30:33.837Z,2.72
2022-10-06T02:33:20.081Z,3.08
2022-10-06T02:36:07.566Z,3.38
2022-10-06T02:38:53.818Z,3.20
2022-10-06T02:41:40.321Z,2.95
2022-10-06T02:44:26.462Z,3.03
2022-10-06T02:47:14.452Z,3.20
2022-10-06T02:50:02.612Z,3.22
2022-10-06T02:52:48.912Z,3.10
2022-10-06T02:55:35.227Z,3.17
2022-10-06T02:58:22.257Z,3.20
2022-10-06T03:01:10.509Z,3.10
2022-10-06T03:03:58.342Z,3.35
2022-10-06T03:06:44.837Z,3.17
2022-10-06T03:09:31.284Z,3.53
2022-10-06T03:12:17.540Z,3.50
2022-10-06T03:15:04.585Z,3.10
2022-10-06T03:17:52.379Z,3.35
2022-10-06T03:20:40.212Z,3.22
2022-10-06T03:23:26.573Z,3.15
2022-10-06T03:26:13.278Z,3.20
2022-10-06T03:29:00.568Z,3.00
2022-10-06T03:31:46.969Z,3.00
2022-10-06T03:34:33.814Z,2.97
2022-10-06T03:37:21.884Z,3.15
2022-10-06T03:40:09.276Z,3.05
2022-10-06T03:42:55.765Z,3.40
2022-10-06T03:45:41.874Z,2.60
2022-10-06T03:48:28.990Z,2.50
2022-10-06T03:51:17.272Z,6.38
2022-10-06T03:54:05.333Z,1.38
2022-10-06T03:56:51.741Z,1.92
2022-10-06T03:59:38.377Z,1.25
2022-10-06T04:02:24.726Z,1.30
2022-10-06T04:05:11.559Z,1.00
2022-10-06T04:07:58.046Z,1.25
2022-10-06T04:10:45.882Z,9.52
2022-10-06T04:13:32.134Z,5.47
2022-10-06T04:16:20.981Z,1.70
2022-10-06T04:19:09.834Z,1.17
2022-10-06T04:21:57.076Z,0.88
2022-10-06T04:24:43.537Z,1.27
2022-10-06T04:27:31.420Z,1.02
2022-10-06T04:30:18.279Z,1.25
2022-10-06T04:33:05.049Z,0.80
2022-10-06T04:35:58.061Z,0.60
2022-10-06T04:38:44.750Z,1.40
2022-10-06T04:41:33.050Z,0.80
2022-10-06T04:44:20.766Z,1.10
2022-10-06T04:47:07.585Z,1.10
2022-10-06T04:49:53.825Z,0.55
2022-10-06T04:52:40.269Z,0.80
2022-10-06T04:55:26.860Z,1.20
2022-10-06T04:58:13.183Z,2.20
2022-10-06T05:01:02.048Z,1.52
2022-10-06T05:03:50.321Z,1.63
2022-10-06T05:06:38.980Z,1.13
2022-10-06T05:09:25.114Z,1.08
2022-10-06T05:12:12.625Z,1.08
2022-10-06T05:14:59.011Z,0.90
2022-10-06T05:17:46.845Z,1.10
2022-10-06T05:20:33.302Z,1.23
2022-10-06T05:23:19.486Z,0.80
2022-10-06T05:26:06.234Z,1.63
2022-10-06T05:28:53.014Z,1.15
2022-10-06T05:31:41.100Z,1.10
2022-10-06T05:34:29.087Z,1.23
2022-10-06T05:37:15.490Z,1.17
2022-10-06T05:40:02.086Z,1.23
2022-10-06T05:42:48.335Z,1.85
2022-10-06T05:45:34.894Z,1.48
2022-10-06T05:48:21.895Z,1.10
2022-10-06T05:51:11.122Z,1.08
2022-10-06T05:53:57.777Z,1.77
2022-10-06T05:56:44.136Z,1.15
2022-10-06T05:59:30.297Z,1.40
2022-10-06T06:02:17.512Z,1.25
2022-10-06T06:05:04.754Z,1.48
2022-10-06T06:07:52.765Z,1.77
2022-10-06T06:10:38.874Z,1.45
2022-10-06T06:13:25.381Z,1.50
2022-10-06T06:16:15.669Z,1.83
2022-10-06T06:19:02.486Z,1.38
2022-10-06T06:21:48.861Z,1.67
2022-10-06T06:24:36.857Z,1.20
2022-10-06T06:27:24.044Z,1.60
2022-10-06T06:30:11.719Z,1.85
2022-10-06T06:33:00.316Z,1.42
2022-10-06T06:35:46.662Z,1.27
2022-10-06T06:38:33.131Z,1.25
2022-10-06T06:41:23.633Z,1.23
2022-10-06T06:44:11.993Z,1.30
2022-10-06T06:47:01.187Z,1.40
2022-10-06T06:49:48.684Z,1.98
2022-10-06T06:52:35.003Z,2.00
2022-10-06T06:55:21.241Z,1.35
2022-10-06T06:58:09.006Z,1.38
2022-10-06T07:00:55.218Z,1.48
2022-10-06T07:03:58.655Z,1.98
2022-10-06T07:06:56.927Z,1.83
2022-10-06T07:09:43.282Z,2.00
2022-10-06T07:12:29.624Z,1.77
2022-10-06T07:15:34.808Z,3.10
2022-10-06T07:18:38.720Z,2.00
2022-10-06T07:21:42.653Z,2.30
2022-10-06T07:24:47.173Z,1.88
2022-10-06T07:27:36.418Z,2.10
2022-10-06T07:30:25.620Z,1.70
2022-10-06T07:33:11.989Z,1.83
2022-10-06T07:35:58.315Z,1.70
2022-10-06T07:38:44.656Z,1.73
2022-10-06T07:41:32.645Z,1.80
2022-10-06T07:44:19.048Z,2.13
2022-10-06T07:47:06.994Z,1.88
2022-10-06T07:49:56.049Z,1.75
2022-10-06T07:52:42.221Z,2.78
2022-10-06T07:55:28.829Z,1.98
2022-10-06T07:58:19.122Z,1.95
2022-10-06T08:01:07.380Z,2.67
2022-10-06T08:03:55.109Z,2.60
2022-10-06T08:06:42.101Z,2.35
2022-10-06T08:09:30.577Z,4.53
2022-10-06T08:12:37.216Z,4.03
2022-10-06T08:15:23.757Z,2.08
2022-10-06T08:18:27.222Z,1.90
2022-10-06T08:21:19.877Z,2.30
2022-10-06T08:24:06.505Z,2.38
2022-10-06T08:26:52.737Z,1.75
2022-10-06T08:29:39.404Z,2.88
2022-10-06T08:32:26.290Z,1.88
2022-10-06T08:35:13.117Z,2.30
2022-10-06T08:38:00.885Z,2.55
2022-10-06T08:40:48.239Z,2.58
2022-10-06T08:43:36.130Z,7.60
2022-10-06T08:46:25.809Z,3.58
2022-10-06T08:49:19.923Z,2.63
2022-10-06T08:52:20.041Z,2.15
2022-10-06T08:55:31.295Z,2.42
2022-10-06T08:58:29.293Z,2.60
2022-10-06T09:01:18.948Z,2.03
2022-10-06T09:04:07.714Z,1.80
2022-10-06T09:07:00.649Z,2.00
2022-10-06T09:10:04.452Z,2.05
2022-10-06T09:12:58.558Z,5.22
2022-10-06T09:15:51.085Z,2.22
2022-10-06T09:19:06.739Z,2.20
2022-10-06T09:21:50.999Z,2.40
2022-10-06T09:24:46.994Z,2.05
2022-10-06T09:27:36.582Z,2.40
2022-10-06T09:30:25.278Z,2.33
2022-10-06T09:33:22.141Z,1.90
2022-10-06T09:36:10.823Z,2.35
2022-10-06T09:38:58.730Z,3.13
2022-10-06T09:41:46.898Z,2.33
2022-10-06T09:44:42.171Z,2.17
2022-10-06T09:47:44.782Z,1.95
2022-10-06T09:50:31.546Z,1.50
2022-10-06T09:53:18.442Z,2.15
2022-10-06T09:56:05.870Z,10.70
2022-10-06T09:58:57.310Z,11.68
2022-10-06T10:01:43.667Z,2.30
2022-10-06T10:04:33.001Z,1.60
2022-10-06T10:07:24.808Z,1.92
2022-10-06T10:10:21.615Z,1.90
2022-10-06T10:13:20.341Z,1.67
2022-10-06T10:16:07.252Z,2.05
2022-10-06T10:18:54.033Z,1.98
2022-10-06T10:21:45.869Z,2.08
2022-10-06T10:24:47.621Z,8.75
2022-10-06T10:27:47.128Z,5.38
2022-10-06T10:30:38.112Z,2.83
2022-10-06T10:33:32.849Z,2.50
2022-10-06T10:36:20.813Z,2.30
2022-10-06T10:39:14.986Z,1.85
2022-10-06T10:42:06.653Z,2.10
2022-10-06T10:44:57.378Z,2.15
2022-10-06T10:47:46.229Z,1.90
2022-10-06T10:50:36.889Z,2.40
2022-10-06T10:53:30.002Z,2.17
2022-10-06T10:56:20.803Z,3.00
2022-10-06T10:59:16.304Z,2.03
2022-10-06T11:02:10.671Z,2.13
2022-10-06T11:05:02.469Z,2.22
2022-10-06T11:07:55.323Z,1.92
2022-10-06T11:10:47.395Z,2.20
2022-10-06T11:13:40.341Z,2.00
2022-10-06T11:16:38.057Z,2.40
2022-10-06T11:19:34.989Z,2.20
2022-10-06T11:22:29.812Z,2.78
2022-10-06T11:25:22.892Z,2.42
2022-10-06T11:28:17.197Z,2.00
2022-10-06T11:31:22.529Z,2.40
2022-10-06T11:34:11.134Z,2.70
2022-10-06T11:37:03.554Z,2.50
2022-10-06T11:39:57.993Z,2.05
2022-10-06T11:42:51.029Z,2.42
2022-10-06T11:45:45.769Z,2.20
2022-10-06T11:48:34.927Z,2.20
2022-10-06T11:51:32.358Z,2.38
2022-10-06T11:54:44.861Z,2.33
2022-10-06T11:57:33.054Z,3.03
2022-10-06T12:00:46.558Z,2.70
2022-10-06T12:04:05.959Z,2.33
2022-10-06T12:07:03.850Z,2.33
2022-10-06T12:09:52.662Z,2.35
2022-10-06T12:13:01.854Z,2.00
2022-10-06T12:19:25.747Z,2.45
2022-10-06T12:22:18.133Z,2.97
2022-10-06T12:25:11.943Z,2.20
2022-10-06T12:28:09.776Z,2.30
2022-10-06T12:31:21.797Z,2.60
2022-10-06T12:34:44.009Z,2.90
2022-10-06T12:37:54.537Z,2.15
2022-10-06T12:40:47.586Z,2.60
2022-10-06T12:43:58.435Z,2.15
2022-10-06T12:46:49.237Z,1.92
2022-10-06T12:49:49.631Z,3.70
2022-10-06T12:52:46.080Z,2.90
2022-10-06T12:55:42.284Z,2.50
2022-10-06T12:58:31.015Z,2.35
2022-10-06T13:01:17.652Z,2.30
2022-10-06T13:04:04.202Z,1.70
2022-10-06T13:06:51.907Z,2.00
2022-10-06T13:09:38.631Z,2.15
2022-10-06T13:12:31.081Z,1.90
2022-10-06T13:15:22.141Z,2.95
2022-10-06T13:18:14.650Z,2.17
2022-10-06T13:21:02.045Z,1.80
2022-10-06T13:23:50.566Z,2.00
2022-10-06T13:26:37.083Z,9.18
2022-10-06T13:29:25.869Z,2.85
2022-10-06T13:32:18.979Z,2.38
2022-10-06T13:35:05.895Z,2.00
2022-10-06T13:37:53.839Z,2.03
2022-10-06T13:40:45.051Z,1.60
2022-10-06T13:43:37.410Z,2.05
2022-10-06T13:46:28.599Z,2.15
2022-10-06T13:49:20.434Z,2.08
2022-10-06T13:52:16.476Z,1.90
2022-10-06T13:55:03.942Z,2.10
2022-10-06T13:58:08.609Z,2.30
2022-10-06T14:01:00.465Z,2.00
2022-10-06T14:03:48.032Z,1.60
2022-10-06T14:06:34.437Z,2.35
2022-10-06T14:09:25.163Z,13.75
2022-10-06T14:12:15.727Z,5.03
2022-10-06T14:15:05.467Z,2.40
2022-10-06T14:17:56.986Z,1.33
2022-10-06T14:20:47.178Z,1.90
2022-10-06T14:23:47.967Z,2.28
2022-10-06T14:26:36.018Z,1.77
2022-10-06T14:29:23.276Z,2.25
2022-10-06T14:32:15.748Z,2.10
2022-10-06T14:35:02.500Z,2.00
2022-10-06T14:37:49.059Z,1.70
2022-10-06T14:40:35.384Z,1.85
2022-10-06T14:43:21.813Z,1.90
2022-10-06T14:46:11.010Z,1.73
2022-10-06T14:48:59.210Z,2.60
2022-10-06T14:51:46.208Z,1.83
2022-10-06T14:54:33.870Z,2.03
2022-10-06T14:57:21.698Z,3.13
2022-10-06T15:00:10.370Z,2.30
2022-10-06T15:02:57.075Z,1.95
2022-10-06T15:05:58.666Z,1.90
2022-10-06T15:08:45.042Z,3.22
2022-10-06T15:11:31.547Z,2.55
2022-10-06T15:14:17.841Z,2.00
2022-10-06T15:17:04.514Z,1.90
2022-10-06T15:19:50.942Z,2.60
2022-10-06T15:22:39.040Z,2.92
2022-10-06T15:25:42.613Z,2.60
2022-10-06T15:28:46.680Z,2.75
2022-10-06T15:31:34.903Z,2.22
2022-10-06T15:34:23.447Z,2.05
2022-10-06T15:37:09.963Z,1.88
2022-10-06T15:39:57.885Z,2.50
2022-10-06T15:42:44.331Z,1.70
2022-10-06T15:45:30.741Z,2.42
2022-10-06T15:48:20.178Z,16.50
2022-10-06T15:51:06.882Z,2.95
2022-10-06T15:53:53.177Z,2.08
2022-10-06T15:56:42.019Z,1.95
2022-10-06T15:59:32.682Z,2.50
2022-10-06T16:02:20.654Z,2.67
2022-10-06T16:05:45.759Z,2.10
2022-10-06T16:08:35.179Z,3.90
2022-10-06T16:11:21.870Z,2.67
2022-10-06T16:14:10.257Z,2.35
2022-10-06T16:16:59.785Z,2.65
2022-10-06T16:19:46.831Z,2.67
2022-10-06T16:22:33.446Z,3.10
2022-10-06T16:25:19.642Z,2.33
2022-10-06T16:28:06.148Z,2.55
2022-10-06T16:30:57.296Z,2.75
2022-10-06T16:33:43.548Z,2.50
2022-10-06T16:36:29.773Z,2.30
2022-10-06T16:39:18.026Z,3.40
2022-10-06T16:42:04.783Z,3.85
2022-10-06T16:44:51.353Z,3.72
2022-10-06T16:47:38.915Z,3.22
2022-10-06T16:50:25.477Z,2.42
2022-10-06T16:53:16.717Z,3.40
2022-10-06T16:56:03.450Z,3.15
2022-10-06T16:58:53.259Z,3.38
2022-10-06T17:01:39.543Z,4.22
2022-10-06T17:04:27.371Z,5.43
2022-10-06T17:07:13.412Z,3.53
2022-10-06T17:10:18.979Z,3.92
2022-10-06T17:13:06.391Z,3.55
2022-10-06T17:15:59.014Z,5.03
2022-10-06T17:18:48.530Z,3.72
2022-10-06T17:21:58.302Z,4.60
2022-10-06T17:24:42.711Z,5.00
2022-10-06T17:27:30.203Z,4.10
2022-10-06T17:30:16.997Z,3.95
2022-10-06T17:33:03.536Z,6.18
2022-10-06T17:35:50.798Z,7.63
2022-10-06T17:38:42.227Z,5.85
2022-10-06T17:41:30.601Z,4.25
2022-10-06T17:44:22.677Z,5.28
2022-10-06T17:47:12.620Z,5.38
2022-10-06T17:50:00.403Z,4.78
2022-10-06T17:52:47.852Z,4.20
2022-10-06T17:55:37.635Z,4.57
2022-10-06T17:58:24.354Z,4.72
2022-10-06T18:01:13.287Z,5.20
2022-10-06T18:03:59.977Z,12.25
2022-10-06T18:06:47.970Z,8.15
2022-10-06T18:09:34.174Z,6.40
2022-10-06T18:12:20.834Z,6.30
2022-10-06T18:15:08.909Z,6.40
2022-10-06T18:17:55.173Z,5.00
2022-10-06T18:20:42.299Z,3.75
2022-10-06T18:23:28.930Z,4.65
2022-10-06T18:26:17.534Z,11.57
2022-10-06T18:29:06.513Z,8.70
2022-10-06T18:31:54.026Z,6.65
2022-10-06T18:37:47.908Z,8.05
2022-10-06T18:40:34.193Z,6.20
2022-10-06T18:43:20.699Z,4.93
2022-10-06T18:46:26.767Z,4.37
2022-10-06T18:49:15.723Z,4.60
2022-10-06T18:52:02.310Z,5.10
2022-10-06T18:54:49.104Z,5.27
2022-10-06T18:57:36.548Z,6.07
2022-10-06T19:00:25.814Z,5.17
2022-10-06T19:03:13.638Z,5.32
2022-10-06T19:06:00.315Z,6.00
2022-10-06T19:08:51.211Z,5.30
2022-10-06T19:11:46.177Z,6.43
2022-10-06T19:14:35.755Z,9.87
2022-10-06T19:17:22.841Z,12.97
2022-10-06T19:20:11.947Z,19.10
2022-10-06T19:22:58.356Z,10.63
2022-10-06T19:25:44.950Z,9.80
2022-10-06T19:28:33.367Z,10.10
2022-10-06T19:31:20.023Z,9.70
2022-10-06T19:34:08.393Z,8.80
2022-10-06T19:36:58.110Z,7.33
2022-10-06T19:39:48.026Z,6.23
2022-10-06T19:42:48.628Z,5.87
2022-10-06T19:45:35.170Z,6.10
2022-10-06T19:48:21.421Z,5.70
2022-10-06T19:51:16.201Z,5.90
2022-10-06T19:54:05.271Z,5.90
2022-10-06T19:56:51.966Z,5.23
2022-10-06T19:59:38.950Z,5.37
2022-10-06T20:02:25.355Z,4.73
2022-10-06T20:05:13.148Z,5.37
2022-10-06T20:07:59.713Z,5.60
2022-10-06T20:10:47.319Z,5.87
2022-10-06T20:13:35.943Z,4.37
2022-10-06T20:16:22.200Z,4.47
2022-10-06T20:19:09.846Z,4.83
2022-10-06T20:21:56.204Z,5.80
2022-10-06T20:24:42.475Z,4.60
2022-10-06T20:27:30.548Z,6.17
2022-10-06T20:30:16.814Z,5.93
2022-10-06T20:33:04.075Z,5.30
2022-10-06T20:35:50.449Z,5.17
2022-10-06T20:39:00.552Z,4.77
2022-10-06T20:41:47.133Z,6.80
2022-10-06T20:44:35.337Z,13.37
2022-10-06T20:47:21.999Z,10.23
2022-10-06T20:50:09.415Z,5.63
2022-10-06T20:52:57.416Z,5.20
2022-10-06T20:55:52.100Z,5.00
2022-10-06T20:58:38.983Z,4.83
2022-10-06T21:01:26.430Z,5.20
2022-10-06T21:04:14.992Z,5.20
2022-10-06T21:07:03.812Z,9.90
2022-10-06T21:09:52.002Z,12.07
2022-10-06T21:12:38.603Z,6.70
2022-10-06T21:15:25.058Z,5.07
2022-10-06T21:18:12.688Z,5.07
2022-10-06T21:21:02.351Z,4.50
2022-10-06T21:23:50.045Z,5.50
2022-10-06T21:26:38.382Z,14.63
2022-10-06T21:29:24.761Z,7.20
2022-10-06T21:32:11.367Z,5.37
2022-10-06T21:34:59.440Z,7.77
2022-10-06T21:37:46.759Z,7.20
2022-10-06T21:40:36.621Z,6.30
2022-10-06T21:43:23.211Z,12.17
2022-10-06T21:46:27.563Z,7.73
2022-10-06T21:49:16.868Z,8.10
2022-10-06T21:52:05.326Z,7.13
2022-10-06T21:54:51.820Z,7.10
2022-10-06T21:57:38.376Z,6.77
2022-10-06T22:00:24.953Z,7.77
2022-10-06T22:03:12.658Z,9.87
2022-10-06T22:06:03.648Z,9.13
2022-10-06T22:08:51.680Z,9.67
2022-10-06T22:11:40.429Z,6.90
2022-10-06T22:14:27.072Z,5.60
2022-10-06T22:17:13.768Z,5.97
2022-10-06T22:20:00.351Z,6.10
2022-10-06T22:22:46.868Z,7.07
2022-10-06T22:25:34.508Z,8.50
2022-10-06T22:28:21.136Z,5.97
2022-10-06T22:31:09.454Z,6.20
2022-10-06T22:33:57.824Z,5.63
2022-10-06T22:36:44.183Z,7.00
2022-10-06T22:39:30.776Z,6.33
2022-10-06T22:42:18.328Z,8.20
2022-10-06T22:45:05.631Z,10.80
2022-10-06T22:47:51.969Z,6.77
2022-10-06T22:50:38.160Z,5.60
2022-10-06T22:53:26.322Z,5.70
2022-10-06T22:56:12.851Z,6.43
2022-10-06T22:59:00.805Z,6.30
2022-10-06T23:01:47.060Z,5.63
2022-10-06T23:04:33.544Z,5.70
2022-10-06T23:07:19.828Z,6.03
2022-10-06T23:10:06.586Z,5.07
2022-10-06T23:12:55.931Z,5.37
2022-10-06T23:15:43.929Z,5.03
2022-10-06T23:18:30.765Z,5.37
2022-10-06T23:21:21.536Z,4.97
2022-10-06T23:24:08.651Z,5.03
2022-10-06T23:26:57.895Z,4.73
2022-10-06T23:29:44.345Z,4.50
2022-10-06T23:32:32.575Z,4.63
2022-10-06T23:35:19.095Z,4.47
2022-10-06T23:38:05.397Z,4.50
2022-10-06T23:40:52.039Z,4.27
2022-10-06T23:43:38.972Z,5.10
2022-10-06T23:46:25.256Z,4.57
2022-10-06T23:49:13.049Z,4.00
2022-10-06T23:51:59.242Z,10.10
2022-10-06T23:54:45.467Z,12.93
2022-10-06T23:57:31.868Z,6.97
